createdAt,value
2022-10-06T00:04:36.612Z,2.10
2022-10-06T00:09:38.830Z,2.63
2022-10-06T00:14:41.145Z,2.25
2022-10-06T00:19:43.484Z,2.25
2022-10-06T00:24:46.279Z,2.47
2022-10-06T00:29:48.652Z,2.30
2022-10-06T00:34:53.047Z,2.60
2022-10-06T00:39:55.944Z,1.83
2022-10-06T00:45:03.303Z,2.00
2022-10-06T00:50:06.503Z,2.63
2022-10-06T00:55:12.188Z,2.47
2022-10-06T01:00:15.016Z,2.08
2022-10-06T01:05:24.448Z,2.45
2022-10-06T01:10:26.683Z,2.45
2022-10-06T01:15:29.353Z,2.63
2022-10-06T01:20:32.498Z,3.08
2022-10-06T01:25:35.290Z,2.40
2022-10-06T01:30:44.112Z,2.60
2022-10-06T01:35:49.518Z,2.63
2022-10-06T01:40:54.055Z,2.60
2022-10-06T01:45:58.333Z,2.42
2022-10-06T01:51:01.192Z,2.60
2022-10-06T01:56:03.399Z,2.80
2022-10-06T02:01:10.110Z,2.45
2022-10-06T02:06:12.488Z,2.80
2022-10-06T02:11:14.746Z,2.97
2022-10-06T02:16:17.004Z,3.15
2022-10-06T02:21:21.997Z,2.78
2022-10-06T02:26:24.870Z,2.95
2022-10-06T02:31:27.173Z,3.10
2022-10-06T02:36:29.820Z,2.78
2022-10-06T02:41:33.069Z,2.53
2022-10-06T02:46:35.328Z,2.85
2022-10-06T02:51:37.836Z,3.10
2022-10-06T02:56:40.197Z,2.60
2022-10-06T03:01:42.556Z,2.80
2022-10-06T03:06:44.979Z,2.60
2022-10-06T03:11:47.650Z,2.78
2022-10-06T03:16:52.168Z,2.90
2022-10-06T03:21:54.418Z,3.13
2022-10-06T03:26:56.833Z,3.20
2022-10-06T03:31:59.557Z,3.00
2022-10-06T03:37:01.781Z,3.33
2022-10-06T03:42:04.087Z,3.08
2022-10-06T03:47:06.344Z,3.78
2022-10-06T03:52:08.992Z,3.20
2022-10-06T03:57:11.209Z,3.47
2022-10-06T04:02:13.602Z,3.55
2022-10-06T04:07:15.952Z,3.60
2022-10-06T04:12:18.377Z,4.00
2022-10-06T04:17:20.698Z,4.40
2022-10-06T04:22:22.961Z,3.90
2022-10-06T04:27:27.969Z,2.95
2022-10-06T04:32:30.252Z,4.93
2022-10-06T04:37:32.555Z,4.32
2022-10-06T04:42:35.456Z,5.95
2022-10-06T04:47:37.860Z,5.38
2022-10-06T04:52:40.065Z,4.38
2022-10-06T04:57:42.419Z,3.70
2022-10-06T05:02:44.757Z,4.13
2022-10-06T05:07:47.231Z,4.00
2022-10-06T05:12:49.444Z,4.63
2022-10-06T05:17:51.854Z,3.50
2022-10-06T05:22:54.039Z,5.10
2022-10-06T05:27:56.504Z,6.28
2022-10-06T05:32:58.754Z,5.97
2022-10-06T05:38:00.974Z,6.85
2022-10-06T05:43:03.354Z,8.52
2022-10-06T05:48:05.746Z,10.10
2022-10-06T05:53:08.336Z,9.10
2022-10-06T05:58:11.309Z,9.50
2022-10-06T06:03:14.871Z,7.85
2022-10-06T06:08:17.108Z,5.55
2022-10-06T06:13:25.479Z,5.72
2022-10-06T06:18:35.158Z,4.95
2022-10-06T06:23:43.047Z,5.20
2022-10-06T06:28:49.128Z,5.93
2022-10-06T06:33:53.235Z,7.93
2022-10-06T06:38:57.478Z,6.75
2022-10-06T06:44:02.650Z,4.97
2022-10-06T06:49:06.452Z,4.15
2022-10-06T06:54:10.491Z,3.35
2022-10-06T06:59:14.074Z,3.17
2022-10-06T07:04:17.502Z,2.85
2022-10-06T07:09:21.215Z,2.45
2022-10-06T07:14:33.993Z,2.13
2022-10-06T07:19:51.769Z,2.50
2022-10-06T07:25:08.169Z,2.33
2022-10-06T07:30:22.122Z,3.35
2022-10-06T07:35:25.835Z,3.13
2022-10-06T07:40:28.452Z,2.20
2022-10-06T07:45:41.969Z,2.28
2022-10-06T07:50:49.600Z,1.98
2022-10-06T07:55:52.583Z,3.13
2022-10-06T08:00:54.805Z,2.50
2022-10-06T08:06:02.539Z,2.70
2022-10-06T08:11:06.857Z,2.10
2022-10-06T08:16:18.803Z,1.67
2022-10-06T08:21:42.349Z,2.30
2022-10-06T08:26:44.676Z,2.10
2022-10-06T08:31:47.171Z,2.72
2022-10-06T08:37:08.644Z,1.83
2022-10-06T08:42:18.946Z,2.10
2022-10-06T08:47:23.823Z,1.98
2022-10-06T08:52:47.437Z,1.95
2022-10-06T08:58:08.040Z,1.60
2022-10-06T09:03:24.310Z,1.48
2022-10-06T09:08:42.590Z,1.40
2022-10-06T09:13:54.156Z,1.55
2022-10-06T09:19:09.652Z,1.75
2022-10-06T09:24:18.185Z,2.00
2022-10-06T09:29:20.711Z,1.30
2022-10-06T09:34:31.272Z,1.60
2022-10-06T09:39:38.956Z,2.10
2022-10-06T09:44:49.377Z,2.30
2022-10-06T09:50:12.793Z,2.22
2022-10-06T09:55:18.371Z,1.48
2022-10-06T10:00:36.988Z,1.40
2022-10-06T10:05:47.061Z,1.67
2022-10-06T10:10:51.295Z,2.05
2022-10-06T10:15:59.381Z,1.42
2022-10-06T10:21:08.904Z,1.40
2022-10-06T10:26:14.957Z,1.30
2022-10-06T10:31:45.284Z,1.67
2022-10-06T10:37:03.828Z,1.42
2022-10-06T10:42:25.374Z,1.70
2022-10-06T10:47:38.238Z,1.50
2022-10-06T10:52:43.835Z,2.08
2022-10-06T10:57:48.356Z,1.40
2022-10-06T11:02:55.350Z,1.40
2022-10-06T11:08:11.778Z,1.70
2022-10-06T11:13:29.507Z,1.70
2022-10-06T11:18:57.755Z,1.70
2022-10-06T11:24:43.132Z,1.25
2022-10-06T11:29:50.943Z,1.50
2022-10-06T11:34:53.830Z,1.50
2022-10-06T11:40:21.098Z,1.38
2022-10-06T11:45:36.083Z,1.10
2022-10-06T11:50:43.102Z,1.45
2022-10-06T11:55:45.460Z,1.25
2022-10-06T12:00:50.196Z,1.35
2022-10-06T12:05:57.081Z,1.67
2022-10-06T12:10:59.729Z,1.10
2022-10-06T12:22:17.474Z,1.48
2022-10-06T12:27:54.789Z,1.40
2022-10-06T12:32:59.350Z,1.65
2022-10-06T12:38:06.574Z,1.25
2022-10-06T12:43:14.874Z,1.20
2022-10-06T12:48:35.573Z,1.90
2022-10-06T12:53:46.247Z,1.23
2022-10-06T12:58:48.615Z,1.10
2022-10-06T13:03:53.473Z,1.30
2022-10-06T13:09:15.316Z,1.40
2022-10-06T13:14:17.651Z,1.67
2022-10-06T13:19:27.202Z,1.50
2022-10-06T13:24:29.542Z,1.35
2022-10-06T13:29:32.399Z,1.58
2022-10-06T13:34:36.499Z,1.40
2022-10-06T13:39:39.373Z,1.90
2022-10-06T13:44:48.600Z,1.40
2022-10-06T13:49:58.035Z,1.63
2022-10-06T13:55:02.136Z,1.40
2022-10-06T14:00:15.669Z,1.40
2022-10-06T14:05:36.792Z,1.30
2022-10-06T14:10:42.823Z,0.93
2022-10-06T14:15:53.434Z,1.20
2022-10-06T14:20:57.579Z,1.30
2022-10-06T14:26:00.294Z,1.45
2022-10-06T14:31:02.583Z,1.08
2022-10-06T14:36:05.593Z,1.30
2022-10-06T14:41:08.210Z,1.40
2022-10-06T14:46:11.875Z,1.27
2022-10-06T14:51:14.409Z,1.23
2022-10-06T14:56:17.043Z,1.52
2022-10-06T15:01:23.711Z,1.52
2022-10-06T15:06:45.049Z,1.02
2022-10-06T15:11:47.375Z,0.93
2022-10-06T15:16:50.286Z,1.38
2022-10-06T15:21:52.468Z,1.25
2022-10-06T15:27:13.245Z,1.83
2022-10-06T15:32:16.063Z,2.08
2022-10-06T15:37:20.480Z,1.52
2022-10-06T15:42:24.601Z,1.77
2022-10-06T15:47:27.390Z,2.05
2022-10-06T15:52:34.466Z,1.60
2022-10-06T15:57:37.913Z,1.33
2022-10-06T16:02:40.635Z,1.50
2022-10-06T16:07:42.946Z,1.52
2022-10-06T16:12:45.665Z,1.50
2022-10-06T16:17:48.091Z,1.85
2022-10-06T16:22:50.279Z,1.83
2022-10-06T16:27:52.493Z,1.75
2022-10-06T16:32:54.754Z,2.15
2022-10-06T16:37:57.053Z,1.98
2022-10-06T16:42:59.899Z,3.45
2022-10-06T16:48:02.114Z,2.42
2022-10-06T16:53:04.453Z,3.03
2022-10-06T16:58:06.665Z,3.53
2022-10-06T17:03:09.083Z,2.80
2022-10-06T17:08:11.370Z,2.97
2022-10-06T17:13:13.713Z,2.63
2022-10-06T17:18:16.007Z,2.85
2022-10-06T17:23:18.490Z,3.15
2022-10-06T17:28:20.939Z,3.67
2022-10-06T17:33:23.439Z,4.38
2022-10-06T17:38:28.221Z,3.58
2022-10-06T17:43:31.514Z,4.53
2022-10-06T17:48:34.146Z,3.80
2022-10-06T17:53:41.166Z,3.28
2022-10-06T17:58:46.608Z,3.80
2022-10-06T18:03:49.527Z,4.97
2022-10-06T18:08:51.889Z,4.00
2022-10-06T18:13:55.197Z,4.72
2022-10-06T18:19:03.280Z,4.75
2022-10-06T18:24:14.558Z,4.28
2022-10-06T18:29:18.650Z,4.70
2022-10-06T18:39:43.181Z,7.45
2022-10-06T18:45:03.771Z,5.57
2022-10-06T18:50:06.536Z,5.32
2022-10-06T18:55:09.198Z,5.82
2022-10-06T19:00:11.840Z,5.95
2022-10-06T19:05:14.419Z,6.18
2022-10-06T19:10:16.679Z,4.55
2022-10-06T19:15:21.052Z,6.40
2022-10-06T19:20:23.955Z,5.28
2022-10-06T19:25:27.469Z,5.75
2022-10-06T19:30:30.598Z,4.90
2022-10-06T19:35:33.391Z,5.50
2022-10-06T19:40:37.124Z,5.53
2022-10-06T19:45:39.857Z,5.70
2022-10-06T19:50:42.263Z,5.45
2022-10-06T19:55:44.563Z,6.40
2022-10-06T20:00:47.454Z,6.15
2022-10-06T20:05:49.851Z,5.60
2022-10-06T20:11:02.206Z,10.43
2022-10-06T20:16:09.055Z,6.55
2022-10-06T20:21:25.272Z,5.90
2022-10-06T20:26:39.819Z,5.95
2022-10-06T20:31:45.754Z,5.68
2022-10-06T20:36:51.878Z,5.60
2022-10-06T20:46:59.844Z,3.75
2022-10-06T20:52:03.438Z,6.80
2022-10-06T20:57:07.079Z,4.53
2022-10-06T21:02:11.057Z,4.00
2022-10-06T21:07:13.263Z,4.32
2022-10-06T21:12:16.643Z,3.42
2022-10-06T21:17:19.320Z,3.85
2022-10-06T21:22:21.598Z,4.60
2022-10-06T21:27:23.833Z,4.57
2022-10-06T21:32:26.197Z,4.95
2022-10-06T21:37:28.440Z,4.10
2022-10-06T21:42:30.624Z,3.85
2022-10-06T21:47:32.932Z,3.90
2022-10-06T21:52:35.170Z,4.63
2022-10-06T21:57:37.349Z,3.17
2022-10-06T22:02:39.696Z,3.40
2022-10-06T22:07:42.419Z,4.35
2022-10-06T22:12:44.862Z,3.40
2022-10-06T22:17:47.370Z,3.85
2022-10-06T22:22:51.861Z,4.15
2022-10-06T22:27:54.110Z,3.85
2022-10-06T22:32:56.483Z,3.80
2022-10-06T22:37:58.992Z,3.50
2022-10-06T22:43:01.341Z,4.10
2022-10-06T22:48:03.579Z,3.88
2022-10-06T22:53:06.111Z,4.18
2022-10-06T22:58:08.519Z,3.33
2022-10-06T23:03:11.852Z,3.83
2022-10-06T23:08:14.344Z,3.30
2022-10-06T23:13:17.136Z,3.60
2022-10-06T23:18:19.483Z,3.95
2022-10-06T23:23:21.936Z,3.25
2022-10-06T23:28:24.319Z,4.13
2022-10-06T23:33:26.757Z,4.28
2022-10-06T23:38:29.276Z,4.15
2022-10-06T23:43:31.648Z,4.47
2022-10-06T23:48:33.920Z,3.40
2022-10-06T23:53:37.119Z,3.75
2022-10-06T23:58:39.416Z,4.20
